createdAt,value
2023-04-18T00:00:02.732Z,99694.25
2023-04-18T00:00:49.799Z,99692.78
2023-04-18T00:01:38.640Z,99688.37
2023-04-18T00:02:27.480Z,99693.91
2023-04-18T00:03:16.204Z,99692.03
2023-04-18T00:04:05.267Z,99693.25
2023-04-18T00:04:52.742Z,99691.13
2023-04-18T00:05:40.507Z,99689.72
2023-04-18T00:06:30.321Z,99692.62
2023-04-18T00:07:18.050Z,99696.84
2023-04-18T00:08:05.720Z,99693.81
2023-04-18T00:08:52.886Z,99695.84
2023-04-18T00:09:40.064Z,99695.28
2023-04-18T00:10:27.067Z,99688.97
2023-04-18T00:11:14.245Z,99695.97
2023-04-18T00:12:02.235Z,99695.78
2023-04-18T00:12:49.341Z,99694.84
2023-04-18T00:13:38.705Z,99700.91
2023-04-18T00:14:25.913Z,99690.28
2023-04-18T00:15:13.074Z,99691.75
2023-04-18T00:16:00.149Z,99698.41
2023-04-18T00:16:47.306Z,99698.31
2023-04-18T00:17:35.814Z,99696.44
2023-04-18T00:18:22.986Z,99703.72
2023-04-18T00:19:10.815Z,99696.37
2023-04-18T00:20:02.701Z,99695.97
2023-04-18T00:20:49.755Z,99697.06
2023-04-18T00:21:37.579Z,99697.53
2023-04-18T00:22:25.747Z,99704.78
2023-04-18T00:23:14.292Z,99703.31
2023-04-18T00:24:01.538Z,99705.78
2023-04-18T00:24:52.325Z,99700.59
2023-04-18T00:25:39.273Z,99701.84
2023-04-18T00:26:27.396Z,99702.25
2023-04-18T00:27:14.436Z,99699.53
2023-04-18T00:28:01.726Z,99707.44
2023-04-18T00:28:48.876Z,99701.66
2023-04-18T00:29:36.292Z,99703.31
2023-04-18T00:30:23.582Z,99707.06
2023-04-18T00:31:10.836Z,99708.06
2023-04-18T00:31:58.429Z,99706.00
2023-04-18T00:32:45.534Z,99703.69
2023-04-18T00:33:32.586Z,99708.62
2023-04-18T00:34:19.627Z,99706.09
2023-04-18T00:35:07.141Z,99705.47
2023-04-18T00:35:54.493Z,99702.00
2023-04-18T00:36:41.574Z,99704.50
2023-04-18T00:37:29.568Z,99705.16
2023-04-18T00:38:16.585Z,99708.03
2023-04-18T00:39:03.922Z,99703.69
2023-04-18T00:39:54.616Z,99701.41
2023-04-18T00:40:42.284Z,99707.22
2023-04-18T00:41:30.592Z,99701.41
2023-04-18T00:42:17.655Z,99703.34
2023-04-18T00:43:04.847Z,99703.34
2023-04-18T00:43:51.922Z,99695.81
2023-04-18T00:44:39.016Z,99698.50
2023-04-18T00:45:26.227Z,99697.56
2023-04-18T00:46:13.360Z,99705.66
2023-04-18T00:47:00.838Z,99705.16
2023-04-18T00:47:47.877Z,99700.06
2023-04-18T00:48:35.106Z,99701.56
2023-04-18T00:49:22.626Z,99699.94
2023-04-18T00:50:10.825Z,99696.84
2023-04-18T00:51:00.785Z,99696.91
2023-04-18T00:51:47.869Z,99700.56
2023-04-18T00:52:36.243Z,99700.84
2023-04-18T00:53:23.543Z,99699.50
2023-04-18T00:54:13.815Z,99695.16
2023-04-18T00:55:01.037Z,99700.50
2023-04-18T00:55:48.407Z,99695.94
2023-04-18T00:56:36.543Z,99697.41
2023-04-18T00:57:23.601Z,99703.09
2023-04-18T00:58:10.886Z,99696.78
2023-04-18T00:58:58.199Z,99700.56
2023-04-18T00:59:46.948Z,99700.00
2023-04-18T01:00:34.650Z,99698.84
2023-04-18T01:01:21.706Z,99697.22
2023-04-18T01:02:09.373Z,99690.16
2023-04-18T01:02:56.639Z,99693.94
2023-04-18T01:03:44.410Z,99698.31
2023-04-18T01:04:35.016Z,99694.97
2023-04-18T01:05:23.309Z,99694.91
2023-04-18T01:06:10.493Z,99690.53
2023-04-18T01:06:57.884Z,99691.44
2023-04-18T01:07:45.798Z,99691.22
2023-04-18T01:08:33.071Z,99695.56
2023-04-18T01:09:20.477Z,99693.22
2023-04-18T01:10:09.137Z,99700.50
2023-04-18T01:10:56.256Z,99695.50
2023-04-18T01:11:43.238Z,99694.72
2023-04-18T01:12:30.825Z,99691.69
2023-04-18T01:13:19.523Z,99692.34
2023-04-18T01:14:08.025Z,99698.97
2023-04-18T01:14:55.127Z,99698.56
2023-04-18T01:15:43.282Z,99692.00
2023-04-18T01:16:33.032Z,99696.59
2023-04-18T01:17:20.165Z,99694.53
2023-04-18T01:18:09.187Z,99693.44
2023-04-18T01:18:57.299Z,99686.81
2023-04-18T01:19:44.924Z,99683.06
2023-04-18T01:20:32.047Z,99694.41
2023-04-18T01:21:20.430Z,99688.25
2023-04-18T01:22:07.875Z,99687.38
2023-04-18T01:22:55.604Z,99689.88
2023-04-18T01:23:42.917Z,99688.97
2023-04-18T01:24:32.183Z,99693.56
2023-04-18T01:25:19.363Z,99694.34
2023-04-18T01:26:06.421Z,99687.00
2023-04-18T01:26:53.462Z,99695.56
2023-04-18T01:27:40.513Z,99694.34
2023-04-18T01:28:28.182Z,99690.84
2023-04-18T01:29:15.558Z,99689.81
2023-04-18T01:30:02.704Z,99697.16
2023-04-18T01:30:49.933Z,99695.69
2023-04-18T01:31:38.252Z,99699.22
2023-04-18T01:32:25.253Z,99692.09
2023-04-18T01:33:12.324Z,99702.50
2023-04-18T01:33:59.333Z,99704.97
2023-04-18T01:34:46.421Z,99702.00
2023-04-18T01:35:34.011Z,99700.44
2023-04-18T01:36:21.047Z,99702.56
2023-04-18T01:37:08.117Z,99704.34
2023-04-18T01:37:55.435Z,99700.59
2023-04-18T01:38:42.605Z,99705.84
2023-04-18T01:39:29.718Z,99701.44
2023-04-18T01:40:16.799Z,99699.75
2023-04-18T01:41:03.991Z,99706.75
2023-04-18T01:41:51.007Z,99704.13
2023-04-18T01:42:38.234Z,99695.91
2023-04-18T01:43:25.222Z,99697.38
2023-04-18T01:44:12.537Z,99699.84
2023-04-18T01:44:59.814Z,99706.47
2023-04-18T01:45:46.863Z,99703.19
2023-04-18T01:46:34.548Z,99701.06
2023-04-18T01:47:21.729Z,99707.16
2023-04-18T01:48:09.221Z,99696.25
2023-04-18T01:48:57.215Z,99704.19
2023-04-18T01:49:48.353Z,99693.59
2023-04-18T01:50:35.619Z,99701.44
2023-04-18T01:51:22.822Z,99699.94
2023-04-18T01:52:09.921Z,99698.94
2023-04-18T01:52:56.938Z,99698.22
2023-04-18T01:53:44.017Z,99697.47
2023-04-18T01:54:31.126Z,99693.00
2023-04-18T01:55:18.140Z,99695.53
2023-04-18T01:56:05.474Z,99697.25
2023-04-18T01:56:52.537Z,99699.31
2023-04-18T01:57:39.547Z,99697.78
2023-04-18T01:58:27.050Z,99701.13
2023-04-18T01:59:14.223Z,99695.13
2023-04-18T02:00:01.989Z,99699.91
2023-04-18T02:00:52.914Z,99703.13
2023-04-18T02:01:39.985Z,99694.84
2023-04-18T02:02:27.141Z,99697.66
2023-04-18T02:03:14.552Z,99699.19
2023-04-18T02:04:01.916Z,99701.31
2023-04-18T02:04:49.030Z,99694.25
2023-04-18T02:05:37.721Z,99700.09
2023-04-18T02:06:25.251Z,99698.66
2023-04-18T02:07:12.306Z,99702.41
2023-04-18T02:07:59.679Z,99702.34
2023-04-18T02:08:46.716Z,99699.44
2023-04-18T02:09:33.968Z,99698.25
2023-04-18T02:10:21.476Z,99705.34
2023-04-18T02:11:08.568Z,99702.13
2023-04-18T02:11:56.586Z,99693.53
2023-04-18T02:12:43.558Z,99701.44
2023-04-18T02:13:30.678Z,99699.38
2023-04-18T02:14:17.708Z,99697.13
2023-04-18T02:15:05.086Z,99690.31
2023-04-18T02:15:52.322Z,99698.44
2023-04-18T02:16:39.540Z,99695.25
2023-04-18T02:17:26.606Z,99686.25
2023-04-18T02:18:13.663Z,99691.84
2023-04-18T02:19:01.715Z,99688.06
2023-04-18T02:19:48.858Z,99689.97
2023-04-18T02:20:36.625Z,99695.00
2023-04-18T02:21:24.730Z,99685.91
2023-04-18T02:22:11.714Z,99692.03
2023-04-18T02:22:59.510Z,99686.31
2023-04-18T02:23:46.592Z,99687.22
2023-04-18T02:24:33.777Z,99686.19
2023-04-18T02:25:23.929Z,99689.84
2023-04-18T02:26:11.082Z,99692.00
2023-04-18T02:26:58.708Z,99691.62
2023-04-18T02:27:47.121Z,99688.09
2023-04-18T02:28:34.560Z,99683.59
2023-04-18T02:29:21.642Z,99692.59
2023-04-18T02:30:11.060Z,99689.78
2023-04-18T02:31:00.264Z,99693.12
2023-04-18T02:31:47.328Z,99690.44
2023-04-18T02:32:34.667Z,99686.19
2023-04-18T02:33:21.988Z,99689.00
2023-04-18T02:34:09.417Z,99700.25
2023-04-18T02:34:56.597Z,99696.25
2023-04-18T02:35:43.579Z,99698.56
2023-04-18T02:36:31.278Z,99698.56
2023-04-18T02:37:18.291Z,99693.28
2023-04-18T02:38:05.313Z,99695.25
2023-04-18T02:38:52.444Z,99697.19
2023-04-18T02:39:39.469Z,99701.28
2023-04-18T02:40:26.406Z,99698.88
2023-04-18T02:41:15.486Z,99698.28
2023-04-18T02:42:02.446Z,99701.81
2023-04-18T02:42:49.497Z,99701.56
2023-04-18T02:43:36.470Z,99702.19
2023-04-18T02:44:23.511Z,99710.72
2023-04-18T02:45:11.039Z,99709.16
2023-04-18T02:45:58.093Z,99705.88
2023-04-18T02:46:45.129Z,99706.59
2023-04-18T02:47:40.467Z,99710.87
2023-04-18T02:48:34.389Z,99710.44
2023-04-18T02:49:21.406Z,99713.44
2023-04-18T02:50:09.067Z,99712.88
2023-04-18T02:51:05.185Z,99706.56
2023-04-18T02:51:56.196Z,99717.13
2023-04-18T02:52:44.096Z,99705.75
2023-04-18T02:53:31.653Z,99709.75
2023-04-18T02:54:18.906Z,99703.31
2023-04-18T02:55:06.540Z,99712.37
2023-04-18T02:55:53.629Z,99700.53
2023-04-18T02:56:40.657Z,99709.53
2023-04-18T02:57:27.527Z,99714.56
2023-04-18T02:58:14.582Z,99710.47
2023-04-18T02:59:01.526Z,99713.81
2023-04-18T02:59:48.695Z,99715.22
2023-04-18T03:00:36.356Z,99714.03
2023-04-18T03:01:23.479Z,99715.19
2023-04-18T03:02:10.777Z,99718.25
2023-04-18T03:02:58.017Z,99718.97
2023-04-18T03:03:45.247Z,99720.09
2023-04-18T03:04:32.430Z,99717.00
2023-04-18T03:05:20.239Z,99719.63
2023-04-18T03:06:07.615Z,99719.44
2023-04-18T03:06:56.290Z,99717.00
2023-04-18T03:07:43.488Z,99713.78
2023-04-18T03:08:30.692Z,99719.75
2023-04-18T03:09:17.745Z,99724.88
2023-04-18T03:10:05.131Z,99719.22
2023-04-18T03:10:52.264Z,99722.00
2023-04-18T03:11:39.505Z,99714.91
2023-04-18T03:12:26.580Z,99719.37
2023-04-18T03:13:13.623Z,99716.03
2023-04-18T03:14:00.816Z,99723.19
2023-04-18T03:14:47.946Z,99726.66
2023-04-18T03:15:35.167Z,99716.50
2023-04-18T03:16:22.565Z,99715.25
2023-04-18T03:17:09.784Z,99719.91
2023-04-18T03:17:57.080Z,99712.88
2023-04-18T03:18:44.517Z,99715.00
2023-04-18T03:19:32.396Z,99717.34
2023-04-18T03:20:19.600Z,99724.28
2023-04-18T03:21:07.586Z,99718.41
2023-04-18T03:21:54.782Z,99712.37
2023-04-18T03:22:41.864Z,99716.28
2023-04-18T03:23:28.907Z,99717.69
2023-04-18T03:24:16.251Z,99720.28
2023-04-18T03:25:03.858Z,99709.16
2023-04-18T03:25:50.885Z,99710.56
2023-04-18T03:26:37.857Z,99720.03
2023-04-18T03:27:24.930Z,99714.69
2023-04-18T03:28:11.939Z,99715.81
2023-04-18T03:28:59.003Z,99718.03
2023-04-18T03:29:46.095Z,99715.91
2023-04-18T03:30:33.201Z,99719.25
2023-04-18T03:31:20.555Z,99720.03
2023-04-18T03:32:07.954Z,99722.91
2023-04-18T03:32:56.426Z,99725.13
2023-04-18T03:33:44.503Z,99724.38
2023-04-18T03:34:31.536Z,99726.19
2023-04-18T03:35:19.077Z,99722.91
2023-04-18T03:36:06.499Z,99717.50
2023-04-18T03:36:54.416Z,99718.34
2023-04-18T03:37:41.475Z,99723.72
2023-04-18T03:38:28.545Z,99716.38
2023-04-18T03:39:15.663Z,99722.06
2023-04-18T03:40:02.685Z,99717.50
2023-04-18T03:40:49.704Z,99719.19
2023-04-18T03:41:36.846Z,99726.37
2023-04-18T03:42:24.105Z,99723.66
2023-04-18T03:43:11.779Z,99722.44
2023-04-18T03:43:59.030Z,99729.47
2023-04-18T03:44:45.964Z,99728.81
2023-04-18T03:45:33.071Z,99721.94
2023-04-18T03:46:22.221Z,99726.69
2023-04-18T03:47:09.285Z,99725.00
2023-04-18T03:47:56.754Z,99729.72
2023-04-18T03:48:43.729Z,99726.00
2023-04-18T03:49:31.033Z,99722.44
2023-04-18T03:50:18.117Z,99727.19
2023-04-18T03:51:06.352Z,99724.97
2023-04-18T03:51:53.430Z,99717.69
2023-04-18T03:52:40.444Z,99728.06
2023-04-18T03:53:27.484Z,99723.22
2023-04-18T03:54:15.819Z,99733.00
2023-04-18T03:55:03.107Z,99719.37
2023-04-18T03:55:50.809Z,99721.59
2023-04-18T03:56:38.574Z,99733.25
2023-04-18T03:57:26.699Z,99729.34
2023-04-18T03:58:14.112Z,99728.69
2023-04-18T03:59:01.264Z,99734.75
2023-04-18T03:59:48.348Z,99732.88
2023-04-18T04:00:35.725Z,99734.47
2023-04-18T04:01:22.746Z,99735.28
2023-04-18T04:02:09.988Z,99733.63
2023-04-18T04:02:57.354Z,99736.59
2023-04-18T04:03:44.728Z,99733.63
2023-04-18T04:04:31.845Z,99741.75
2023-04-18T04:05:19.028Z,99737.00
2023-04-18T04:06:06.852Z,99735.88
2023-04-18T04:06:53.941Z,99738.78
2023-04-18T04:07:40.929Z,99743.03
2023-04-18T04:08:28.379Z,99739.12
2023-04-18T04:09:15.536Z,99746.22
2023-04-18T04:10:02.561Z,99742.37
2023-04-18T04:10:49.566Z,99747.63
2023-04-18T04:11:36.783Z,99745.56
2023-04-18T04:12:24.299Z,99751.50
2023-04-18T04:13:11.573Z,99743.75
2023-04-18T04:13:58.650Z,99750.06
2023-04-18T04:14:45.640Z,99753.81
2023-04-18T04:15:32.919Z,99747.94
2023-04-18T04:16:19.908Z,99754.19
2023-04-18T04:17:07.305Z,99746.00
2023-04-18T04:17:54.586Z,99753.19
2023-04-18T04:18:41.639Z,99750.56
2023-04-18T04:19:28.633Z,99754.19
2023-04-18T04:20:15.951Z,99759.56
2023-04-18T04:21:04.202Z,99759.56
2023-04-18T04:21:51.415Z,99754.31
2023-04-18T04:22:38.440Z,99749.25
2023-04-18T04:23:28.768Z,99753.41
2023-04-18T04:24:16.590Z,99760.59
2023-04-18T04:25:05.360Z,99757.06
2023-04-18T04:25:53.307Z,99754.78
2023-04-18T04:26:40.562Z,99763.09
2023-04-18T04:27:27.569Z,99759.44
2023-04-18T04:28:14.697Z,99757.37
2023-04-18T04:29:03.718Z,99759.44
2023-04-18T04:29:52.468Z,99758.72
2023-04-18T04:30:41.922Z,99765.53
2023-04-18T04:31:29.145Z,99761.16
2023-04-18T04:32:17.175Z,99760.03
2023-04-18T04:33:04.297Z,99757.81
2023-04-18T04:33:51.495Z,99762.81
2023-04-18T04:34:38.601Z,99762.38
2023-04-18T04:35:26.941Z,99760.38
2023-04-18T04:36:18.859Z,99762.69
2023-04-18T04:37:06.461Z,99765.44
2023-04-18T04:37:53.708Z,99769.44
2023-04-18T04:38:41.858Z,99760.94
2023-04-18T04:39:29.277Z,99763.94
2023-04-18T04:40:16.408Z,99767.94
2023-04-18T04:41:04.021Z,99767.66
2023-04-18T04:41:53.827Z,99768.50
2023-04-18T04:42:41.491Z,99763.75
2023-04-18T04:43:28.983Z,99767.66
2023-04-18T04:44:19.316Z,99764.13
2023-04-18T04:45:08.834Z,99764.28
2023-04-18T04:45:56.107Z,99770.63
2023-04-18T04:46:45.030Z,99768.12
2023-04-18T04:47:32.195Z,99760.06
2023-04-18T04:48:20.262Z,99770.81
2023-04-18T04:49:07.887Z,99766.88
2023-04-18T04:49:55.109Z,99769.22
2023-04-18T04:50:42.558Z,99776.84
2023-04-18T04:51:29.583Z,99767.34
2023-04-18T04:52:16.748Z,99760.44
2023-04-18T04:53:04.120Z,99773.31
2023-04-18T04:53:51.255Z,99768.69
2023-04-18T04:54:38.224Z,99772.87
2023-04-18T04:55:25.185Z,99773.91
2023-04-18T04:56:12.821Z,99776.22
2023-04-18T04:56:59.995Z,99770.81
2023-04-18T04:57:47.994Z,99776.94
2023-04-18T04:58:35.048Z,99774.91
2023-04-18T04:59:22.128Z,99777.91
2023-04-18T05:00:09.692Z,99778.09
2023-04-18T05:00:58.264Z,99783.09
2023-04-18T05:02:04.322Z,99780.47
2023-04-18T05:02:55.229Z,99773.59
2023-04-18T05:03:43.094Z,99781.69
2023-04-18T05:04:30.625Z,99780.66
2023-04-18T05:05:17.726Z,99778.41
2023-04-18T05:06:04.958Z,99780.66
2023-04-18T05:06:52.028Z,99777.75
2023-04-18T05:07:39.099Z,99785.63
2023-04-18T05:08:26.517Z,99779.97
2023-04-18T05:09:14.044Z,99785.88
2023-04-18T05:10:01.083Z,99780.91
2023-04-18T05:10:50.027Z,99777.69
2023-04-18T05:11:37.007Z,99782.34
2023-04-18T05:12:23.985Z,99782.19
2023-04-18T05:13:10.924Z,99789.72
2023-04-18T05:13:58.218Z,99789.25
2023-04-18T05:14:45.228Z,99780.97
2023-04-18T05:15:32.614Z,99777.91
2023-04-18T05:16:19.684Z,99785.44
2023-04-18T05:17:08.086Z,99785.03
2023-04-18T05:17:55.174Z,99781.44
2023-04-18T05:18:42.527Z,99783.44
2023-04-18T05:19:29.503Z,99784.97
2023-04-18T05:20:16.605Z,99787.59
2023-04-18T05:21:03.805Z,99790.13
2023-04-18T05:21:51.393Z,99790.47
2023-04-18T05:22:38.529Z,99789.72
2023-04-18T05:23:25.533Z,99788.13
2023-04-18T05:24:12.871Z,99787.09
2023-04-18T05:25:00.004Z,99794.38
2023-04-18T05:25:46.987Z,99797.66
2023-04-18T05:26:34.099Z,99801.44
2023-04-18T05:27:21.875Z,99798.94
2023-04-18T05:28:09.234Z,99793.72
2023-04-18T05:28:56.339Z,99793.91
2023-04-18T05:29:43.515Z,99796.69
2023-04-18T05:30:31.185Z,99797.00
2023-04-18T05:31:18.579Z,99795.53
2023-04-18T05:32:14.573Z,99794.75
2023-04-18T05:33:01.801Z,99802.31
2023-04-18T05:33:48.915Z,99794.63
2023-04-18T05:34:38.745Z,99799.03
2023-04-18T05:35:26.714Z,99803.78
2023-04-18T05:36:13.850Z,99795.03
2023-04-18T05:37:01.126Z,99798.72
2023-04-18T05:37:53.832Z,99795.59
2023-04-18T05:38:41.214Z,99804.44
2023-04-18T05:39:28.334Z,99799.91
2023-04-18T05:40:15.608Z,99802.63
2023-04-18T05:41:03.476Z,99809.91
2023-04-18T05:41:50.887Z,99804.09
2023-04-18T05:42:38.121Z,99800.38
2023-04-18T05:43:25.343Z,99808.66
2023-04-18T05:44:12.701Z,99802.75
2023-04-18T05:45:02.217Z,99805.84
2023-04-18T05:45:49.155Z,99801.91
2023-04-18T05:46:36.280Z,99799.03
2023-04-18T05:47:27.066Z,99804.19
2023-04-18T05:48:14.389Z,99806.09
2023-04-18T05:49:02.464Z,99805.84
2023-04-18T05:49:49.462Z,99812.47
2023-04-18T05:50:36.638Z,99808.03
2023-04-18T05:51:23.802Z,99805.06
2023-04-18T05:52:11.598Z,99806.47
2023-04-18T05:52:59.663Z,99810.41
2023-04-18T05:53:46.775Z,99809.72
2023-04-18T05:54:33.820Z,99810.22
2023-04-18T05:55:20.956Z,99809.84
2023-04-18T05:56:08.076Z,99811.50
2023-04-18T05:56:55.527Z,99813.31
2023-04-18T05:57:42.709Z,99811.75
2023-04-18T05:58:29.857Z,99812.72
2023-04-18T05:59:16.891Z,99811.13
2023-04-18T06:00:07.185Z,99809.87
2023-04-18T06:00:54.446Z,99815.12
2023-04-18T06:01:41.493Z,99817.63
2023-04-18T06:02:28.845Z,99806.66
2023-04-18T06:03:16.229Z,99813.97
2023-04-18T06:04:03.731Z,99809.31
2023-04-18T06:04:52.409Z,99807.53
2023-04-18T06:05:41.283Z,99806.66
2023-04-18T06:06:28.893Z,99812.13
2023-04-18T06:07:16.186Z,99810.28
2023-04-18T06:08:03.819Z,99806.94
2023-04-18T06:08:50.929Z,99808.00
2023-04-18T06:09:38.189Z,99804.28
2023-04-18T06:10:25.442Z,99808.06
2023-04-18T06:11:12.958Z,99810.06
2023-04-18T06:12:00.177Z,99811.94
2023-04-18T06:12:47.240Z,99810.87
2023-04-18T06:13:34.989Z,99807.97
2023-04-18T06:14:23.697Z,99813.31
2023-04-18T06:15:11.876Z,99811.75
2023-04-18T06:15:58.955Z,99806.84
2023-04-18T06:16:46.171Z,99821.09
2023-04-18T06:17:34.652Z,99812.66
2023-04-18T06:18:21.812Z,99810.22
2023-04-18T06:19:09.081Z,99813.66
2023-04-18T06:19:56.228Z,99817.94
2023-04-18T06:20:45.585Z,99815.31
2023-04-18T06:21:32.998Z,99815.72
2023-04-18T06:22:20.038Z,99811.63
2023-04-18T06:23:08.480Z,99820.31
2023-04-18T06:23:55.579Z,99817.84
2023-04-18T06:24:43.883Z,99820.81
2023-04-18T06:25:32.080Z,99811.50
2023-04-18T06:26:19.095Z,99817.28
2023-04-18T06:27:14.939Z,99820.00
2023-04-18T06:28:07.870Z,99813.19
2023-04-18T06:28:54.961Z,99819.84
2023-04-18T06:29:43.587Z,99818.25
2023-04-18T06:30:30.735Z,99825.91
2023-04-18T06:31:17.900Z,99823.38
2023-04-18T06:32:05.675Z,99828.56
2023-04-18T06:32:52.816Z,99820.69
2023-04-18T06:33:39.883Z,99830.09
2023-04-18T06:34:26.815Z,99819.34
2023-04-18T06:35:13.927Z,99829.41
2023-04-18T06:36:00.980Z,99819.81
2023-04-18T06:36:48.322Z,99820.00
2023-04-18T06:37:35.523Z,99829.44
2023-04-18T06:38:22.700Z,99828.28
2023-04-18T06:39:09.824Z,99820.97
2023-04-18T06:39:56.853Z,99827.25
2023-04-18T06:40:44.091Z,99822.44
2023-04-18T06:41:32.699Z,99825.56
2023-04-18T06:42:22.867Z,99827.28
2023-04-18T06:43:10.777Z,99826.16
2023-04-18T06:44:02.882Z,99828.03
2023-04-18T06:44:51.363Z,99829.97
2023-04-18T06:45:39.264Z,99837.81
2023-04-18T06:46:26.676Z,99831.75
2023-04-18T06:47:16.471Z,99840.06
2023-04-18T06:48:04.802Z,99833.72
2023-04-18T06:48:52.020Z,99828.50
2023-04-18T06:49:38.968Z,99837.06
2023-04-18T06:50:27.169Z,99826.75
2023-04-18T06:51:14.363Z,99840.53
2023-04-18T06:52:01.364Z,99833.13
2023-04-18T06:52:50.057Z,99841.25
2023-04-18T06:53:37.534Z,99834.34
2023-04-18T06:54:24.911Z,99832.50
2023-04-18T06:55:13.257Z,99834.97
2023-04-18T06:56:00.539Z,99836.59
2023-04-18T06:56:47.686Z,99840.72
2023-04-18T06:57:34.786Z,99833.94
2023-04-18T06:58:21.922Z,99836.06
2023-04-18T06:59:09.316Z,99838.69
2023-04-18T06:59:56.336Z,99840.25
2023-04-18T07:00:43.905Z,99844.41
2023-04-18T07:01:34.355Z,99837.53
2023-04-18T07:02:21.911Z,99835.88
2023-04-18T07:03:16.016Z,99839.22
2023-04-18T07:04:14.628Z,99839.00
2023-04-18T07:05:01.998Z,99843.81
2023-04-18T07:05:50.644Z,99846.16
2023-04-18T07:06:37.804Z,99839.03
2023-04-18T07:07:24.787Z,99840.44
2023-04-18T07:08:11.830Z,99845.81
2023-04-18T07:09:01.534Z,99849.06
2023-04-18T07:09:49.658Z,99845.81
2023-04-18T07:10:36.645Z,99846.25
2023-04-18T07:11:24.118Z,99850.59
2023-04-18T07:12:11.280Z,99847.72
2023-04-18T07:12:58.378Z,99848.44
2023-04-18T07:13:47.505Z,99848.87
2023-04-18T07:14:34.576Z,99846.81
2023-04-18T07:15:21.783Z,99845.53
2023-04-18T07:16:10.085Z,99845.12
2023-04-18T07:16:58.091Z,99851.81
2023-04-18T07:17:45.102Z,99844.50
2023-04-18T07:18:37.945Z,99848.50
2023-04-18T07:19:25.552Z,99849.34
2023-04-18T07:20:14.252Z,99847.28
2023-04-18T07:21:02.201Z,99852.91
2023-04-18T07:21:49.206Z,99845.75
2023-04-18T07:22:36.080Z,99847.69
2023-04-18T07:23:23.130Z,99850.25
2023-04-18T07:24:10.695Z,99848.19
2023-04-18T07:24:57.703Z,99851.75
2023-04-18T07:25:45.475Z,99852.59
2023-04-18T07:26:32.733Z,99852.97
2023-04-18T07:27:19.647Z,99851.31
2023-04-18T07:28:06.791Z,99851.97
2023-04-18T07:28:53.807Z,99853.84
2023-04-18T07:29:40.847Z,99850.94
2023-04-18T07:30:27.991Z,99852.84
2023-04-18T07:31:16.873Z,99861.66
2023-04-18T07:32:05.176Z,99858.94
2023-04-18T07:32:53.715Z,99863.97
2023-04-18T07:33:40.930Z,99861.25
2023-04-18T07:34:30.104Z,99863.91
2023-04-18T07:35:17.315Z,99872.25
2023-04-18T07:36:04.454Z,99865.34
2023-04-18T07:36:51.832Z,99861.78
2023-04-18T07:37:38.997Z,99866.78
2023-04-18T07:38:26.041Z,99860.75
2023-04-18T07:39:13.109Z,99858.25
2023-04-18T07:40:00.251Z,99868.06
2023-04-18T07:40:47.414Z,99868.06
2023-04-18T07:41:35.290Z,99867.47
2023-04-18T07:42:22.310Z,99879.56
2023-04-18T07:43:09.471Z,99879.37
2023-04-18T07:43:56.379Z,99880.81
2023-04-18T07:44:43.875Z,99874.03
2023-04-18T07:45:31.258Z,99875.28
2023-04-18T07:46:18.332Z,99878.00
2023-04-18T07:47:11.897Z,99876.12
2023-04-18T07:47:58.984Z,99875.28
2023-04-18T07:48:46.539Z,99878.44
2023-04-18T07:49:33.668Z,99880.88
2023-04-18T07:50:20.624Z,99880.22
2023-04-18T07:51:07.908Z,99873.53
2023-04-18T07:51:56.710Z,99876.91
2023-04-18T07:52:43.778Z,99878.56
2023-04-18T07:53:30.819Z,99883.31
2023-04-18T07:54:17.840Z,99882.53
2023-04-18T07:55:05.332Z,99887.75
2023-04-18T07:55:52.267Z,99889.00
2023-04-18T07:56:39.239Z,99881.94
2023-04-18T07:57:26.287Z,99880.31
2023-04-18T07:58:13.806Z,99881.94
2023-04-18T07:59:01.959Z,99886.28
2023-04-18T07:59:49.067Z,99882.09
2023-04-18T08:00:39.579Z,99888.78
2023-04-18T08:01:27.483Z,99881.13
2023-04-18T08:02:14.589Z,99880.31
2023-04-18T08:03:02.248Z,99892.91
2023-04-18T08:03:49.631Z,99895.84
2023-04-18T08:04:36.922Z,99892.03
2023-04-18T08:05:24.119Z,99893.13
2023-04-18T08:06:11.329Z,99889.78
2023-04-18T08:06:58.304Z,99893.13
2023-04-18T08:07:45.298Z,99896.47
2023-04-18T08:08:32.358Z,99892.31
2023-04-18T08:09:20.787Z,99887.72
2023-04-18T08:10:08.919Z,99893.56
2023-04-18T08:10:56.222Z,99892.53
2023-04-18T08:11:43.458Z,99898.19
2023-04-18T08:12:31.600Z,99895.22
2023-04-18T08:13:18.572Z,99896.53
2023-04-18T08:14:05.465Z,99895.69
2023-04-18T08:14:52.490Z,99893.59
2023-04-18T08:15:40.687Z,99897.59
2023-04-18T08:16:29.442Z,99903.59
2023-04-18T08:17:16.683Z,99901.91
2023-04-18T08:18:03.972Z,99900.47
2023-04-18T08:18:51.299Z,99905.88
2023-04-18T08:19:38.467Z,99896.28
2023-04-18T08:20:25.742Z,99905.00
2023-04-18T08:21:13.221Z,99904.34
2023-04-18T08:22:18.179Z,99902.09
2023-04-18T08:23:08.727Z,99896.22
2023-04-18T08:23:57.836Z,99901.25
2023-04-18T08:25:01.171Z,99897.91
2023-04-18T08:25:51.246Z,99900.00
2023-04-18T08:26:38.351Z,99907.53
2023-04-18T08:27:25.385Z,99904.81
2023-04-18T08:28:13.737Z,99904.63
2023-04-18T08:29:00.859Z,99904.63
2023-04-18T08:29:47.900Z,99906.50
2023-04-18T08:30:35.000Z,99905.06
2023-04-18T08:31:22.383Z,99905.72
2023-04-18T08:32:09.548Z,99907.00
2023-04-18T08:32:56.717Z,99908.03
2023-04-18T08:33:43.869Z,99906.16
2023-04-18T08:34:33.915Z,99913.25
2023-04-18T08:35:21.098Z,99914.94
2023-04-18T08:36:08.618Z,99911.56
2023-04-18T08:36:55.778Z,99911.38
2023-04-18T08:37:43.506Z,99912.78
2023-04-18T08:38:30.978Z,99909.22
2023-04-18T08:39:18.008Z,99914.03
2023-04-18T08:40:07.855Z,99914.22
2023-04-18T08:40:54.836Z,99921.06
2023-04-18T08:41:44.510Z,99912.50
2023-04-18T08:42:31.638Z,99924.56
2023-04-18T08:43:19.335Z,99917.94
2023-04-18T08:44:07.871Z,99918.31
2023-04-18T08:44:54.808Z,99923.72
2023-04-18T08:45:44.862Z,99917.00
2023-04-18T08:46:36.693Z,99927.78
2023-04-18T08:47:24.097Z,99921.50
2023-04-18T08:48:15.274Z,99926.75
2023-04-18T08:49:06.443Z,99925.31
2023-04-18T08:49:53.906Z,99925.72
2023-04-18T08:50:44.918Z,99929.34
2023-04-18T08:51:35.977Z,99930.59
2023-04-18T08:52:23.655Z,99931.50
2023-04-18T08:53:11.417Z,99932.16
2023-04-18T08:54:02.972Z,99932.97
2023-04-18T08:54:51.325Z,99932.97
2023-04-18T08:55:38.327Z,99933.81
2023-04-18T08:56:27.490Z,99940.31
2023-04-18T08:57:26.962Z,99934.06
2023-04-18T08:58:22.511Z,99930.44
2023-04-18T08:59:09.874Z,99934.44
2023-04-18T08:59:57.563Z,99932.63
2023-04-18T09:00:50.704Z,99939.72
2023-04-18T09:01:56.750Z,99937.22
2023-04-18T09:02:45.196Z,99929.72
2023-04-18T09:03:37.838Z,99923.22
2023-04-18T09:04:37.131Z,99927.13
2023-04-18T09:05:25.742Z,99926.91
2023-04-18T09:06:19.498Z,99929.81
2023-04-18T09:07:09.038Z,99923.34
2023-04-18T09:07:57.068Z,99931.13
2023-04-18T09:08:44.359Z,99933.00
2023-04-18T09:09:58.604Z,99937.34
2023-04-18T09:10:46.737Z,99939.00
2023-04-18T09:11:34.737Z,99934.22
2023-04-18T09:12:26.632Z,99941.78
2023-04-18T09:13:13.740Z,99941.84
2023-04-18T09:14:00.767Z,99937.41
2023-04-18T09:14:48.750Z,99938.47
2023-04-18T09:15:35.640Z,99931.00
2023-04-18T09:16:23.539Z,99937.16
2023-04-18T09:17:13.414Z,99931.50
2023-04-18T09:18:03.112Z,99937.38
2023-04-18T09:19:13.599Z,99928.91
2023-04-18T09:20:02.185Z,99934.31
2023-04-18T09:20:50.050Z,99936.00
2023-04-18T09:21:40.537Z,99932.81
2023-04-18T09:22:27.480Z,99938.97
2023-04-18T09:23:23.702Z,99935.03